METAR Data
IDs: Format: Raw Decoded Include TAF

Data at: 2140 UTC 18 Apr 2021

KCEW 182053Z AUTO 30009KT 10SM FEW100 23/11 A2988 RMK AO2 SLP114 T02330111 56021
KCEW 181953Z AUTO VRB04KT 10SM BKN095 23/12 A2989 RMK AO2 SLP117 T02330117
KCEW 181853Z AUTO 00000KT 10SM BKN080 23/11 A2992 RMK AO2 SLP128 T02330111
KCEW 181753Z AUTO VRB06KT 10SM OVC085 23/12 A2994 RMK AO2 SLP135 T02280117 10233 20150 58012
KCEW 181653Z AUTO 00000KT 10SM FEW090 SCT120 22/11 A2995 RMK AO2 SLP140 T02170111
KCEW 181553Z AUTO 00000KT 10SM CLR 21/12 A2997 RMK AO2 SLP145 T02060122
KCEW 181453Z AUTO VRB03KT 10SM FEW120 19/12 A2997 RMK AO2 SLP147 T01890122 51010
KCEW 181353Z AUTO 00000KT 10SM BKN060 17/13 A2997 RMK AO2 SLP147 T01670128
KCEW 181253Z AUTO 00000KT 10SM SCT055 16/13 A2996 RMK AO2 SLP143 T01610133
KCEW 181153Z AUTO 00000KT 10SM OVC050 15/13 A2994 RMK AO2 SLP138 60006 70086 T01500133 10167 20150 51011
KCEW 181053Z AUTO 35003KT 10SM FEW110 15/14 A2993 RMK AO2 RAB10E39 SLP132 P0000 T01500139
KCEW 180953Z AUTO 32005KT 10SM OVC055 16/14 A2995 RMK AO2 SLP140 T01560139
KCEW 180853Z AUTO 32004KT 8SM OVC050 16/16 A2991 RMK AO2 SLP127 60006 T01610156 56002
KCEW 180833Z AUTO 00000KT 3SM BR FEW004 BKN055 BKN070 16/16 A2990 RMK AO2 T01610156
KCEW 180806Z AUTO 00000KT 7SM BKN004 BKN041 BKN065 17/16 A2990 RMK AO2 T01670161
KCEW 180753Z AUTO 00000KT 8SM SCT004 SCT047 BKN065 17/16 A2991 RMK AO2 RAE53 SLP127 P0005 T01670161
KCEW 180750Z AUTO 00000KT 7SM -RA SCT002 BKN045 BKN065 17/16 A2991 RMK AO2 P0005
KCEW 180714Z AUTO 26003KT 3SM -RA BR OVC002 17/16 A2993 RMK AO2 P0000 T01670161
KCEW 180659Z AUTO 25003KT 3SM -RA BR OVC001 17/16 A2993 RMK AO2 P0000 T01670161
KCEW 180653Z AUTO 00000KT 1 3/4SM -RA BR OVC001 17/16 A2992 RMK AO2 RAB00 SLP129 P0001 T01670161
KCEW 180645Z AUTO 00000KT 1 1/4SM -RA BR OVC001 17/17 A2990 RMK AO2 RAB00 PRESFR P0000 T01670167
KCEW 180634Z AUTO 00000KT 2SM -RA BR OVC001 17/16 A2993 RMK AO2 RAB00 P0000 T01670161
KCEW 180617Z AUTO 24005KT 4SM -RA BR OVC001 17/16 A2995 RMK AO2 RAB00 P0000 T01670161
KCEW 180607Z AUTO 29004KT 3SM -RA BR OVC002 17/16 A2994 RMK AO2 RAB00 P0000 T01670161
KCEW 180553Z AUTO 25005KT 2SM BR OVC002 17/16 A2993 RMK AO2 SLP134 60009 T01670161 10172 20167 401780150 53003
KCEW 180542Z AUTO 23005KT 1/2SM FG VV002 17/16 A2993 RMK AO2 T01670161
KCEW 180531Z AUTO 22005KT 1/4SM FG VV002 17/16 A2993 RMK AO2 T01670161
KCEW 180453Z AUTO 00000KT 1/2SM FG VV001 17/16 A2991 RMK AO2 RAE16 SLP126 P0001 T01670161
KCEW 180432Z AUTO 00000KT 1/2SM FG VV001 17/16 A2990 RMK AO2 RAE16 P0001 T01670161
KCEW 180408Z AUTO 00000KT 3/4SM -RA BR BKN003 OVC110 17/16 A2991 RMK AO2 P0001 T01670161
KCEW 180401Z AUTO 05003KT 1SM -RA BR BKN002 OVC110 17/16 A2991 RMK AO2 P0001 T01670161
KCEW 180353Z AUTO 11003KT 2 1/2SM -RA BR FEW002 FEW075 OVC110 17/16 A2992 RMK AO2 SLP131 P0002 T01670161
KCEW 180253Z AUTO 23004KT 6SM -RA BR FEW060 BKN095 OVC110 17/16 A2996 RMK AO2 SLP143 P0004 60006 T01720161 51029
KCEW 180153Z AUTO 32004KT 10SM -RA FEW070 SCT100 BKN120 17/16 A2992 RMK AO2 RAB0056 SLP131 P0001 T01720161
KCEW 180128Z AUTO 33005KT 9SM -RA SCT008 SCT075 OVC100 17/16 A2991 RMK AO2 RAB0056 P0001 T01720161
KCEW 180053Z AUTO 25004KT 10SM OVC005 17/16 A2991 RMK AO2 RAE20 CIG 003V010 PRESRR SLP126 P0001 T01670161
KCEW 180041Z AUTO 25004KT 10SM OVC007 17/16 A2989 RMK AO2 RAE20 CIG 002V010 P0001 T01670161
KCEW 180026Z AUTO 22003KT 10SM BKN004 OVC008 17/16 A2988 RMK AO2 RAE20 CIG 002V006 P0001 T01670161
KCEW 172353Z AUTO 24004KT 9SM -RA OVC005 17/16 A2987 RMK AO2 SLP113 P0003 60055 T01720161 10178 20167 55008
KCEW 172329Z AUTO 21008KT 9SM -RA BKN003 OVC100 17/16 A2986 RMK AO2 PRESRR P0003 T01670161
KCEW 172319Z AUTO 36005KT 3SM -RA BR SCT001 BKN029 OVC100 17/16 A2981 RMK AO2 P0003 T01670161
KCEW 172306Z AUTO 04005KT 2SM RA BR SCT001 SCT060 OVC100 17/16 A2983 RMK AO2 PRESFR P0002 T01670161
KCEW 172257Z AUTO 00000KT 1 3/4SM RA BR SCT001 BKN060 OVC100 17/16 A2986 RMK AO2 PRESFR P0001 T01670161
KCEW 172253Z AUTO 03003KT 2SM RA BR SCT001 BKN015 OVC100 17/16 A2986 RMK AO2 PRESFR SLP111 P0009 T01720161
KCEW 172226Z AUTO 20004KT 2SM -RA BR FEW002 SCT031 OVC100 17/17 A2989 RMK AO2 P0005 T01670167
KCEW 172206Z AUTO 00000KT 1 3/4SM RA BR FEW014 BKN080 OVC100 17/17 A2989 RMK AO2 VIS 1 1/4V3 P0003 T01720167
KCEW 172159Z AUTO 00000KT 3SM RA BR SCT029 BKN075 OVC100 17/17 A2990 RMK AO2 P0001 T01720167
KCEW 172153Z AUTO 00000KT 1 3/4SM RA BR SCT027 SCT065 OVC090 17/16 A2989 RMK AO2 VIS 1V3 SLP121 P0020 T01720161
KCEW 172122Z AUTO 00000KT 1 1/2SM RA BR SCT009 BKN075 OVC100 17/17 A2989 RMK AO2 LTG DSNT SE AND S P0009 T01720167
KCEW 172109Z AUTO 32003KT 1 1/2SM +RA BR BKN009 BKN019 OVC100 17/16 A2990 RMK AO2 LTG DSNT S CIG 006V011 P0005 T01720161
KCEW 172104Z AUTO 00000KT 1 3/4SM +RA BR SCT009 BKN075 OVC100 17/16 A2990 RMK AO2 P0004 T01670161
KCEW 172053Z AUTO 27003KT 2SM RA BR OVC095 17/16 A2990 RMK AO2 LTG DSNT NE-SE SLP122 P0020 60023 T01670161 51006
KCEW 172024Z AUTO 09005KT 1 3/4SM +RA BR SCT008 BKN075 OVC100 17/17 A2986 RMK AO2 LTG DSNT E-SW PRESFR P0011 T01720167
KCEW 172017Z AUTO 00000KT 1 3/4SM +RA BR BKN008 BKN046 OVC100 17/17 A2988 RMK AO2 LTG DSNT E-S P0009 T01720167
KCEW 171958Z AUTO 25003KT 1 3/4SM VCTS +RA BR BKN008 OVC012 17/16 A2990 RMK AO2 LTG DSNT E-SW CIG 003V010 P0002 T01720161
KCEW 171955Z AUTO 26003KT 2 1/2SM RA BR BKN008 OVC012 17/16 A2990 RMK AO2 LTG DSNT E-SW CIG 003V011 PRESRR P0001 T01720161
KCEW 171953Z AUTO 22003KT 4SM -RA BR SCT008 OVC012 17/16 A2989 RMK AO2 LTG DSNT ALQDS RAB30 SLP121 P0002 T01720161
KCEW 171951Z AUTO 21003KT 5SM -RA BR SCT008 OVC012 17/16 A2989 RMK AO2 LTG DSNT ALQDS RAB30 P0001
KCEW 171941Z AUTO 12004KT 4SM -RA BR BKN012 17/17 A2987 RMK AO2 LTG DSNT ALQDS RAB30 P0000 T01720167
KCEW 171926Z AUTO 00000KT 7SM VCTS BKN010 OVC055 17/17 A2988 RMK AO2 LTG DSNT E-SW T01720167
KCEW 171910Z AUTO 00000KT 6SM BR FEW005 BKN010 OVC055 17/16 A2989 RMK AO2 LTG DSNT E AND SE AND W T01720161
KCEW 171853Z AUTO 00000KT 9SM VCTS FEW005 SCT009 OVC055 18/17 A2988 RMK AO2 LTG DSNT SW RAE30 SLP115 P0001 T01780167
KCEW 171841Z AUTO 00000KT 10SM FEW005 FEW009 OVC055 18/17 A2988 RMK AO2 LTG DSNT NE AND S AND SW RAE30 P0001 T01780167
KCEW 171807Z AUTO 00000KT 4SM -RA BR BKN005 BKN010 OVC060 17/17 A2989 RMK AO2 P0001 T01720167
KCEW 171753Z AUTO 00000KT 4SM -RA BR BKN004 OVC055 18/17 A2989 RMK AO2 SLP120 P0005 60016 T01780167 10178 20150 58012
KCEW 171740Z AUTO 08004KT 5SM -RA BR FEW004 SCT009 OVC055 17/17 A2989 RMK AO2 P0005 T01720167
KCEW 171731Z AUTO 09003KT 2 1/2SM RA BR FEW004 SCT007 OVC055 17/17 A2990 RMK AO2 P0005 T01720167
KCEW 171719Z AUTO 00000KT 3SM -RA BR FEW004 OVC055 17/17 A2990 RMK AO2 P0004 T01720167
KCEW 171707Z AUTO 00000KT 1 3/4SM RA BR SCT006 BKN041 OVC055 17/16 A2992 RMK AO2 VIS 1 1/4V3 P0003 T01720161
KCEW 171702Z AUTO 00000KT 2 1/2SM RA BR SCT005 BKN028 OVC055 17/16 A2992 RMK AO2 VIS 1 1/2V5 P0002 T01720161
KCEW 171700Z AUTO 00000KT 3SM RA BR SCT005 BKN011 OVC055 17/16 A2992 RMK AO2 P0001 T01720161
KCEW 171653Z AUTO 00000KT 7SM -RA SCT005 BKN009 OVC055 17/16 A2992 RMK AO2 RAB04 SLP129 P0006 T01720161
KCEW 171643Z AUTO 00000KT 4SM -RA BR SCT005 SCT009 OVC055 17/17 A2992 RMK AO2 RAB04 P0006 T01720167
KCEW 171620Z AUTO 00000KT 3SM -RA BR BKN007 OVC055 17/16 A2992 RMK AO2 RAB04 P0005 T01720161
KCEW 171610Z AUTO 00000KT 1 3/4SM +RA BR BKN007 OVC060 17/16 A2993 RMK AO2 RAB04 CIG 004V012 P0004 T01720161
KCEW 171553Z AUTO 00000KT 8SM BKN007 OVC060 18/16 A2993 RMK AO2 RAB06E45 CIG 005V010 SLP134 P0001 T01780161
KCEW 171535Z AUTO 05003KT 5SM -RA BR BKN007 BKN020 OVC060 17/16 A2992 RMK AO2 RAB06 P0001 T01720161
KCEW 171509Z AUTO 00000KT 7SM -RA SCT006 BKN021 OVC070 17/16 A2993 RMK AO2 RAB06 P0000 T01720156
KCEW 171453Z AUTO 00000KT 10SM BKN006 OVC075 17/16 A2993 RMK AO2 SLP132 60004 T01720156 53013
KCEW 171418Z AUTO 08003KT 10SM BKN006 OVC085 17/16 A2991 RMK AO2 T01670156
KCEW 171353Z AUTO 00000KT 9SM SCT005 BKN021 OVC095 17/16 A2990 RMK AO2 SLP125 T01720156
KCEW 171312Z AUTO 06005KT 7SM FEW003 OVC021 16/15 A2990 RMK AO2 T01610150
KCEW 171253Z AUTO 03003KT 5SM BR OVC021 16/15 A2991 RMK AO2 RAE38 SLP126 P0004 T01560150
KCEW 171233Z AUTO 00000KT 4SM -RA BR SCT012 OVC021 15/14 A2989 RMK AO2 P0004 T01500144
KCEW 171220Z AUTO 00000KT 4SM -RA BR BKN012 OVC019 15/14 A2989 RMK AO2 P0004 T01500144
KCEW 171213Z AUTO 07004KT 2 1/2SM RA BR BKN013 BKN021 OVC075 15/14 A2988 RMK AO2 P0003 T01500144
KCEW 171205Z AUTO 02004KT 3SM -RA BR BKN013 BKN021 OVC075 15/14 A2991 RMK AO2 P0002 T01500144
KCEW 171153Z AUTO 00000KT 2SM +RA BR BKN015 BKN021 OVC070 15/14 A2989 RMK AO2 RAB20 SLP120 P0007 60012 70037 T01500144 10161 20150 53018
KCEW 171053Z AUTO 00000KT 6SM BR OVC019 15/14 A2985 RMK AO2 SLP106 T01500144
KCEW 171024Z AUTO 35003KT 8SM BKN022 BKN100 16/14 A2985 RMK AO2 T01560144
KCEW 171010Z AUTO 00000KT 7SM SCT018 BKN100 15/14 A2984 RMK AO2 T01500144
KCEW 171000Z AUTO 00000KT 9SM BKN018 BKN110 15/14 A2983 RMK AO2 T01500144
KCEW 170953Z AUTO 00000KT 9SM SCT018 OVC110 15/14 A2983 RMK AO2 SLP100 T01500144